| time (UTC) | temp F | wind direction | speed MPH | gust MPH | rain 1hr in | rain 24hr in | rain mn in | humidity % | barometer mb |
| 20260507210824 | 78 | 276 | 2.0 | 5.0 | 0.00 | 0.86 | 0.86 | 77 | 1013.4 |
| 20260507210321 | 79 | 270 | 5.0 | 10.0 | 0.00 | 0.86 | 0.86 | 76 | 1013.4 |
| 20260507205817 | 79 | 287 | 3.0 | 6.0 | 0.00 | 0.86 | 0.86 | 77 | 1013.4 |
| 20260507205315 | 77 | 250 | 2.0 | 5.0 | 0.00 | 0.86 | 0.86 | 81 | 1013.5 |
| 20260507204810 | 76 | 252 | 3.0 | 8.0 | 0.00 | 0.86 | 0.86 | 81 | 1013.6 |
| 20260507204308 | 77 | 228 | 7.0 | 8.0 | 0.00 | 0.86 | 0.86 | 80 | 1013.7 |
| 20260507203806 | 78 | 258 | 4.0 | 8.0 | 0.00 | 0.86 | 0.86 | 79 | 1013.8 |
| 20260507203304 | 76 | 243 | 5.0 | 5.0 | 0.00 | 0.86 | 0.86 | 82 | 1013.6 |
| 20260507202759 | 75 | 246 | 3.0 | 5.0 | 0.00 | 0.86 | 0.86 | 83 | 1013.7 |
| 20260507202255 | 75 | 256 | 4.0 | 7.0 | 0.00 | 0.86 | 0.86 | 83 | 1013.7 |
| 20260507201750 | 75 | 267 | 0.0 | 6.0 | 0.00 | 0.86 | 0.86 | 84 | 1013.9 |
| 20260507201247 | 75 | 234 | 4.0 | 6.0 | 0.00 | 0.86 | 0.86 | 83 | 1013.8 |
| 20260507200744 | 75 | 232 | 4.0 | 6.0 | 0.00 | 0.86 | 0.86 | 83 | 1014.0 |
| 20260507200239 | 75 | 267 | 3.0 | 6.0 | 0.00 | 0.86 | 0.86 | 83 | 1013.9 |
| 20260507195736 | 76 | 246 | 7.0 | 7.0 | 0.00 | 0.86 | 0.86 | 83 | 1014.1 |
| 20260507195233 | 76 | 292 | 5.0 | 8.0 | 0.00 | 0.86 | 0.86 | 82 | 1014.1 |
| 20260507194731 | 76 | 232 | 5.0 | 7.0 | 0.00 | 0.86 | 0.86 | 84 | 1013.9 |
| 20260507194226 | 76 | 255 | 5.0 | 6.0 | 0.00 | 0.86 | 0.86 | 84 | 1014.1 |
| 20260507193723 | 75 | 315 | 3.0 | 7.0 | 0.00 | 0.86 | 0.86 | 84 | 1014.0 |
| 20260507193220 | 75 | 236 | 5.0 | 9.0 | 0.00 | 0.86 | 0.86 | 83 | 1013.9 |
| 20260507192716 | 75 | 321 | 5.0 | 10.0 | 0.00 | 0.86 | 0.86 | 82 | 1014.2 |
| 20260507192213 | 76 | 270 | 4.0 | 13.0 | 0.00 | 0.86 | 0.86 | 83 | 1013.8 |
| 20260507191709 | 76 | 229 | 8.0 | 15.0 | 0.00 | 0.86 | 0.86 | 82 | 1013.9 |
| 20260507191206 | 77 | 246 | 7.0 | 14.0 | 0.00 | 0.86 | 0.86 | 80 | 1014.0 |
| 20260507190703 | 78 | 234 | 5.0 | 8.0 | 0.00 | 0.86 | 0.86 | 82 | 1013.9 |
| 20260507190202 | 77 | 227 | 5.0 | 10.0 | 0.00 | 0.86 | 0.86 | 82 | 1014.0 |
| 20260507185700 | 76 | 254 | 4.0 | 6.0 | 0.00 | 0.86 | 0.86 | 83 | 1014.4 |
| 20260507185157 | 77 | 276 | 3.0 | 7.0 | 0.00 | 0.86 | 0.86 | 84 | 1014.0 |
| 20260507184654 | 76 | 285 | 3.0 | 10.0 | 0.00 | 0.86 | 0.86 | 86 | 1014.1 |
| 20260507184152 | 75 | 257 | 4.0 | 8.0 | 0.00 | 0.86 | 0.86 | 85 | 1013.8 |
| 20260507183648 | 74 | 264 | 8.0 | 9.0 | 0.00 | 0.86 | 0.86 | 86 | 1014.2 |
| 20260507183145 | 73 | 270 | 3.0 | 6.0 | 0.00 | 0.86 | 0.86 | 90 | 1014.0 |
| 20260507182643 | 73 | 231 | 3.0 | 6.0 | 0.00 | 0.86 | 0.86 | 94 | 1013.6 |
| 20260507182137 | 71 | 247 | 0.0 | 6.0 | 0.00 | 0.86 | 0.86 | 96 | 1013.8 |
| 20260507181634 | 71 | 246 | 1.0 | 7.0 | 0.00 | 0.86 | 0.86 | 99 | 1014.1 |
| 20260507181131 | 71 | 232 | 2.0 | 4.0 | 0.00 | 0.86 | 0.86 | 99 | 1013.9 |
| 20260507180627 | 70 | 273 | 3.0 | 5.0 | 0.00 | 0.86 | 0.86 | 99 | 1014.4 |
| 20260507180124 | 70 | 245 | 5.0 | 7.0 | 0.00 | 0.86 | 0.86 | 99 | 1014.2 |
| 20260507175620 | 71 | 188 | 0.0 | 2.0 | 0.00 | 0.86 | 0.86 | 99 | 1014.1 |
| 20260507175117 | 70 | 306 | 1.0 | 5.0 | 0.00 | 0.86 | 0.86 | 99 | 1014.0 |
| 20260507174614 | 69 | 199 | 2.0 | 5.0 | 0.00 | 0.86 | 0.86 | 99 | 1014.2 |
| 20260507174112 | 69 | 236 | 2.0 | 5.0 | 0.00 | 0.86 | 0.86 | 99 | 1014.1 |
| 20260507173609 | 70 | 260 | 2.0 | 5.0 | 0.00 | 0.86 | 0.86 | 99 | 1014.2 |
| 20260507173106 | 69 | 243 | 2.0 | 4.0 | 0.00 | 0.86 | 0.86 | 99 | 1014.2 |
| 20260507172602 | 69 | 262 | 2.0 | 3.0 | 0.00 | 0.86 | 0.86 | 99 | 1014.0 |
| 20260507172100 | 68 | 276 | 1.0 | 3.0 | 0.00 | 0.86 | 0.86 | 99 | 1014.0 |
| 20260507171554 | 68 | 251 | 2.0 | 3.0 | 0.00 | 0.86 | 0.86 | 99 | 1014.5 |
| 20260507171052 | 68 | 275 | 2.0 | 4.0 | 0.00 | 0.86 | 0.86 | 99 | 1014.3 |
| 20260507170549 | 68 | 188 | 0.0 | 2.0 | 0.00 | 0.86 | 0.86 | 99 | 1014.2 |
| 20260507170046 | 68 | 216 | 3.0 | 3.0 | 0.00 | 0.86 | 0.86 | 99 | 1014.2 |
| 20260507165541 | 68 | 192 | 2.0 | 4.0 | 0.00 | 0.86 | 0.86 | 99 | 1013.6 |
| 20260507165038 | 68 | 194 | 1.0 | 3.0 | 0.02 | 0.86 | 0.86 | 99 | 1013.8 |
| 20260507164534 | 68 | 203 | 0.0 | 1.0 | 0.02 | 0.86 | 0.86 | 99 | 1013.8 |
| 20260507164031 | 68 | 188 | 0.0 | 3.0 | 0.02 | 0.86 | 0.86 | 99 | 1014.3 |
| 20260507163528 | 68 | 270 | 0.0 | 0.0 | 0.05 | 0.86 | 0.86 | 99 | 1014.6 |
| 20260507163026 | 68 | 145 | 0.0 | 3.0 | 0.05 | 0.85 | 0.85 | 99 | 1014.3 |
| 20260507162521 | 68 | 270 | 0.0 | 1.0 | 0.02 | 0.85 | 0.85 | 99 | 1014.5 |
| 20260507162018 | 68 | 233 | 2.0 | 3.0 | 0.00 | 0.85 | 0.85 | 99 | 1014.8 |
| 20260507161514 | 68 | 286 | 0.0 | 1.0 | 0.00 | 0.85 | 0.85 | 99 | 1014.9 |
| 20260507161011 | 68 | 90 | 0.0 | 0.0 | 0.12 | 0.85 | 0.85 | 99 | 1014.9 |
| 20260507160507 | 68 | 90 | 0.0 | 4.0 | 0.21 | 0.85 | 0.85 | 99 | 1015.2 |
| 20260507160004 | 69 | 275 | 4.0 | 4.0 | 0.21 | 0.82 | 0.82 | 99 | 1015.1 |
| 20260507155459 | 69 | 286 | 0.0 | 4.0 | 0.17 | 0.80 | 0.80 | 99 | 1015.4 |
| 20260507154956 | 69 | 236 | 3.0 | 3.0 | 0.14 | 0.78 | 0.78 | 99 | 1015.3 |
| 20260507154453 | 69 | 287 | 0.0 | 0.0 | 0.07 | 0.77 | 0.77 | 99 | 1015.3 |
| 20260507153950 | 68 | 257 | 0.0 | 2.0 | 0.00 | 0.76 | 0.76 | 99 | 1015.4 |
| 20260507153447 | 69 | 252 | 3.0 | 3.0 | 0.00 | 0.76 | 0.76 | 99 | 1015.3 |
| 20260507152943 | 68 | 294 | 1.0 | 3.0 | 0.00 | 0.76 | 0.76 | 99 | 1015.0 |
| 20260507152439 | 68 | 240 | 0.0 | 3.0 | 0.00 | 0.76 | 0.76 | 99 | 1014.7 |
| 20260507151935 | 68 | 240 | 1.0 | 4.0 | 0.00 | 0.76 | 0.76 | 99 | 1015.0 |
| 20260507151432 | 68 | 240 | 3.0 | 4.0 | 0.02 | 0.76 | 0.76 | 99 | 1014.5 |
| 20260507150929 | 68 | 263 | 1.0 | 3.0 | 0.05 | 0.76 | 0.76 | 99 | 1014.7 |
| 20260507150426 | 68 | 194 | 0.0 | 3.0 | 0.05 | 0.75 | 0.75 | 99 | 1014.5 |
| 20260507145922 | 68 | 208 | 2.0 | 3.0 | 0.14 | 0.75 | 0.75 | 99 | 1014.5 |
| 20260507145418 | 68 | 300 | 0.0 | 3.0 | 0.14 | 0.74 | 0.74 | 99 | 1014.4 |
| 20260507144915 | 68 | 255 | 0.0 | 2.0 | 0.38 | 0.73 | 0.73 | 99 | 1014.6 |
| 20260507144412 | 68 | 249 | 6.0 | 6.0 | 1.23 | 0.72 | 0.72 | 99 | 1014.7 |
| 20260507143909 | 69 | 286 | 3.0 | 5.0 | 1.13 | 0.63 | 0.63 | 99 | 1014.9 |
| 20260507143406 | 68 | 278 | 8.0 | 9.0 | 0.31 | 0.47 | 0.47 | 99 | 1014.7 |
| 20260507142903 | 68 | 264 | 5.0 | 11.0 | 0.09 | 0.44 | 0.44 | 99 | 1014.6 |
| 20260507142358 | 69 | 263 | 5.0 | 9.0 | 0.17 | 0.42 | 0.42 | 99 | 1014.2 |
| 20260507141856 | 69 | 250 | 6.0 | 9.0 | 0.21 | 0.42 | 0.42 | 99 | 1014.2 |
| 20260507141352 | 69 | 257 | 5.0 | 15.0 | 0.05 | 0.39 | 0.39 | 99 | 1014.0 |
| 20260507140849 | 69 | 246 | 3.0 | 10.0 | 0.02 | 0.39 | 0.39 | 99 | 1014.1 |
| 20260507140345 | 69 | 260 | 5.0 | 8.0 | 0.02 | 0.39 | 0.39 | 99 | 1014.4 |
| 20260507135843 | 69 | 225 | 5.0 | 12.0 | 0.14 | 0.38 | 0.38 | 99 | 1014.3 |
| 20260507135340 | 69 | 280 | 3.0 | 11.0 | 0.24 | 0.38 | 0.38 | 99 | 1014.1 |
| 20260507134837 | 69 | 200 | 1.0 | 10.0 | 0.12 | 0.35 | 0.35 | 99 | 1014.6 |
| 20260507134333 | 69 | 229 | 6.0 | 10.0 | 0.07 | 0.34 | 0.34 | 99 | 1014.5 |
| 20260507133829 | 69 | 272 | 5.0 | 14.0 | 0.07 | 0.34 | 0.34 | 98 | 1014.5 |
| 20260507133325 | 69 | 255 | 1.0 | 5.0 | 0.07 | 0.33 | 0.33 | 98 | 1014.7 |
| 20260507132824 | 69 | 261 | 5.0 | 6.0 | 0.09 | 0.32 | 0.32 | 98 | 1014.6 |
| 20260507132320 | 69 | 233 | 7.0 | 7.0 | 0.09 | 0.32 | 0.32 | 98 | 1014.3 |
| 20260507131817 | 69 | 235 | 6.0 | 11.0 | 0.09 | 0.31 | 0.31 | 97 | 1014.3 |
| 20260507131314 | 69 | 244 | 6.0 | 9.0 | 0.07 | 0.30 | 0.30 | 97 | 1014.6 |
| 20260507130810 | 69 | 242 | 6.0 | 10.0 | 0.05 | 0.29 | 0.29 | 97 | 1015.0 |
| 20260507130308 | 69 | 244 | 3.0 | 8.0 | 0.02 | 0.29 | 0.29 | 96 | 1014.2 |
| 20260507125807 | 69 | 218 | 2.0 | 11.0 | 0.00 | 0.28 | 0.28 | 96 | 1014.4 |
| 20260507125306 | 69 | 263 | 5.0 | 7.0 | 0.00 | 0.28 | 0.28 | 96 | 1014.4 |
| 20260507124801 | 69 | 248 | 5.0 | 11.0 | 0.00 | 0.28 | 0.28 | 96 | 1014.1 |
| 20260507124257 | 69 | 233 | 4.0 | 8.0 | 0.00 | 0.28 | 0.28 | 96 | 1014.3 |
| 20260507123756 | 69 | 234 | 4.0 | 11.0 | 0.00 | 0.28 | 0.28 | 97 | 1014.1 |
| 20260507123253 | 69 | 229 | 5.0 | 6.0 | 0.00 | 0.28 | 0.28 | 97 | 1014.0 |
| 20260507122748 | 69 | 265 | 2.0 | 10.0 | 0.00 | 0.28 | 0.28 | 97 | 1013.6 |
| 20260507122244 | 68 | 234 | 5.0 | 12.0 | 0.00 | 0.28 | 0.28 | 97 | 1013.8 |
| 20260507121740 | 68 | 212 | 4.0 | 12.0 | 0.00 | 0.28 | 0.28 | 98 | 1013.9 |
| 20260507121236 | 68 | 225 | 3.0 | 7.0 | 0.00 | 0.28 | 0.28 | 98 | 1013.9 |
| 20260507120732 | 68 | 240 | 11.0 | 11.0 | 0.00 | 0.28 | 0.28 | 98 | 1014.0 |
| 20260507120229 | 68 | 246 | 5.0 | 9.0 | 0.00 | 0.28 | 0.28 | 99 | 1013.9 |
| 20260507115725 | 68 | 215 | 1.0 | 5.0 | 0.00 | 0.28 | 0.28 | 99 | 1013.3 |
| 20260507115221 | 67 | 241 | 0.0 | 3.0 | 0.00 | 0.28 | 0.28 | 99 | 1013.1 |
| 20260507114717 | 67 | 243 | 4.0 | 6.0 | 0.00 | 0.28 | 0.28 | 99 | 1013.2 |
| 20260507114215 | 67 | 237 | 2.0 | 5.0 | 0.00 | 0.28 | 0.28 | 99 | 1013.3 |
| 20260507113712 | 67 | 258 | 2.0 | 6.0 | 0.00 | 0.28 | 0.28 | 99 | 1013.1 |
| 20260507113209 | 67 | 187 | 5.0 | 5.0 | 0.00 | 0.28 | 0.28 | 99 | 1013.2 |
| 20260507112706 | 67 | 180 | 1.0 | 3.0 | 0.00 | 0.28 | 0.28 | 99 | 1013.4 |
| 20260507112203 | 67 | 210 | 2.0 | 5.0 | 0.00 | 0.28 | 0.28 | 99 | 1013.9 |
| 20260507111701 | 67 | 243 | 1.0 | 7.0 | 0.00 | 0.28 | 0.28 | 99 | 1013.9 |
| 20260507111157 | 67 | 217 | 3.0 | 5.0 | 0.00 | 0.28 | 0.28 | 99 | 1013.5 |
| 20260507110653 | 67 | 246 | 1.0 | 6.0 | 0.02 | 0.28 | 0.28 | 99 | 1013.2 |
| 20260507110150 | 67 | 106 | 3.0 | 6.0 | 0.05 | 0.28 | 0.28 | 99 | 1011.7 |
| 20260507105647 | 67 | 182 | 3.0 | 5.0 | 0.05 | 0.28 | 0.28 | 99 | 1013.0 |
| 20260507105143 | 67 | 216 | 2.0 | 6.0 | 0.05 | 0.28 | 0.28 | 99 | 1014.0 |
| 20260507104641 | 67 | 197 | 5.0 | 5.0 | 0.07 | 0.27 | 0.27 | 99 | 1014.4 |
| 20260507104137 | 67 | 214 | 2.0 | 7.0 | 0.02 | 0.26 | 0.26 | 99 | 1014.6 |
| 20260507103633 | 67 | 221 | 6.0 | 6.0 | 0.02 | 0.26 | 0.26 | 99 | 1014.8 |
| 20260507103130 | 67 | 192 | 0.0 | 6.0 | 0.05 | 0.26 | 0.26 | 99 | 1014.9 |
| 20260507102626 | 67 | 258 | 4.0 | 5.0 | 0.09 | 0.26 | 0.26 | 99 | 1014.9 |
| 20260507102122 | 67 | 225 | 2.0 | 9.0 | 0.07 | 0.25 | 0.25 | 99 | 1015.1 |
| 20260507101618 | 67 | 207 | 3.0 | 8.0 | 0.00 | 0.24 | 0.24 | 99 | 1015.0 |
| 20260507101114 | 67 | 218 | 5.0 | 5.0 | 0.00 | 0.24 | 0.24 | 99 | 1015.2 |
| 20260507100612 | 67 | 232 | 4.0 | 9.0 | 0.00 | 0.24 | 0.24 | 99 | 1014.8 |
| 20260507100110 | 67 | 249 | 6.0 | 6.0 | 0.02 | 0.24 | 0.24 | 99 | 1015.2 |
| 20260507095608 | 67 | 229 | 3.0 | 6.0 | 0.02 | 0.24 | 0.24 | 99 | 1015.3 |
| 20260507095104 | 67 | 249 | 5.0 | 7.0 | 0.00 | 0.24 | 0.24 | 99 | 1015.5 |
| 20260507094600 | 67 | 235 | 3.0 | 7.0 | 0.00 | 0.24 | 0.24 | 99 | 1015.4 |
| 20260507094057 | 67 | 225 | 3.0 | 5.0 | 0.00 | 0.24 | 0.24 | 99 | 1015.6 |
| 20260507093555 | 67 | 288 | 3.0 | 7.0 | 0.00 | 0.24 | 0.24 | 99 | 1015.6 |
| 20260507093053 | 67 | 240 | 3.0 | 5.0 | 0.00 | 0.24 | 0.24 | 99 | 1015.4 |
| 20260507092549 | 67 | 229 | 3.0 | 7.0 | 0.00 | 0.24 | 0.24 | 99 | 1014.9 |
| 20260507092040 | 67 | 266 | 2.0 | 5.0 | 0.00 | 0.24 | 0.24 | 99 | 1015.1 |
| 20260507091537 | 67 | 225 | 0.0 | 7.0 | 0.00 | 0.24 | 0.24 | 99 | 1015.0 |
| 20260507091033 | 67 | 270 | 0.0 | 11.0 | 0.00 | 0.24 | 0.24 | 99 | 1015.2 |
| 20260507090529 | 67 | 267 | 3.0 | 10.0 | 0.00 | 0.24 | 0.24 | 99 | 1015.0 |
| 20260507090026 | 67 | 225 | 2.0 | 8.0 | 0.00 | 0.24 | 0.24 | 99 | 1014.8 |
| 20260507085523 | 67 | 222 | 3.0 | 5.0 | 0.02 | 0.24 | 0.24 | 99 | 1014.6 |
| 20260507085020 | 67 | 184 | 4.0 | 9.0 | 0.14 | 0.24 | 0.24 | 99 | 1014.2 |
| 20260507084516 | 67 | 239 | 4.0 | 6.0 | 0.24 | 0.23 | 0.23 | 99 | 1015.7 |
| 20260507084014 | 68 | 235 | 6.0 | 6.0 | 0.24 | 0.21 | 0.21 | 99 | 1015.2 |
| 20260507083509 | 68 | 235 | 5.0 | 9.0 | 0.19 | 0.19 | 0.19 | 99 | 1015.6 |
| 20260507083007 | 68 | 225 | 5.0 | 9.0 | 0.09 | 0.17 | 0.17 | 99 | 1015.8 |
| 20260507082503 | 68 | 223 | 6.0 | 9.0 | 0.07 | 0.16 | 0.16 | 99 | 1015.7 |
| 20260507081959 | 68 | 243 | 1.0 | 6.0 | 0.07 | 0.16 | 0.16 | 99 | 1015.5 |
| 20260507081455 | 68 | 231 | 2.0 | 13.0 | 0.07 | 0.15 | 0.15 | 99 | 1015.8 |
| 20260507080952 | 68 | 214 | 2.0 | 4.0 | 0.12 | 0.14 | 0.14 | 98 | 1015.6 |
| 20260507080448 | 68 | 220 | 5.0 | 6.0 | 0.17 | 0.13 | 0.13 | 98 | 1015.4 |
| 20260507075944 | 68 | 190 | 3.0 | 6.0 | 0.19 | 0.12 | 0.12 | 98 | 1015.4 |
| 20260507075440 | 68 | 208 | 2.0 | 4.0 | 0.12 | 0.11 | 0.11 | 98 | 1015.5 |
| 20260507074937 | 68 | 202 | 3.0 | 5.0 | 0.02 | 0.09 | 0.09 | 98 | 1015.6 |
| 20260507074434 | 68 | 180 | 1.0 | 3.0 | 0.02 | 0.09 | 0.09 | 98 | 1015.7 |
| 20260507073932 | 68 | 203 | 0.0 | 3.0 | 0.02 | 0.08 | 0.08 | 97 | 1015.7 |
| 20260507073428 | 69 | 225 | 0.0 | 3.0 | 0.05 | 0.08 | 0.08 | 97 | 1016.0 |
| 20260507072925 | 69 | 233 | 0.0 | 3.0 | 0.09 | 0.07 | 0.07 | 97 | 1016.0 |
| 20260507072422 | 69 | 273 | 3.0 | 5.0 | 0.12 | 0.07 | 0.07 | 96 | 1015.9 |
| 20260507071920 | 69 | 286 | 2.0 | 3.0 | 0.09 | 0.06 | 0.06 | 95 | 1015.7 |
| 20260507071417 | 69 | 270 | 0.0 | 4.0 | 0.12 | 0.05 | 0.05 | 95 | 1015.7 |
| 20260507070913 | 69 | 264 | 3.0 | 5.0 | 0.09 | 0.04 | 0.04 | 94 | 1016.0 |
| 20260507070410 | 69 | 280 | 3.0 | 5.0 | 0.05 | 0.03 | 0.03 | 93 | 1016.0 |
| 20260507065907 | 70 | 244 | 5.0 | 12.0 | 0.05 | 0.03 | 0.03 | 92 | 1016.1 |
| 20260507065404 | 70 | 255 | 5.0 | 5.0 | 0.05 | 0.02 | 0.02 | 91 | 1016.1 |
| 20260507064901 | 70 | 270 | 4.0 | 10.0 | 0.07 | 0.02 | 0.02 | 90 | 1016.2 |
| 20260507064359 | 71 | 295 | 2.0 | 6.0 | 0.05 | 0.02 | 0.02 | 88 | 1016.3 |
| 20260507063857 | 72 | 293 | 3.0 | 7.0 | 0.02 | 0.01 | 0.01 | 85 | 1016.5 |
| 20260507063354 | 72 | 253 | 5.0 | 14.0 | 0.05 | 0.01 | 0.01 | 83 | 1016.3 |
| 20260507062850 | 73 | 281 | 3.0 | 15.0 | 0.02 | 0.00 | 0.00 | 82 | 1015.8 |
| 20260507062347 | 74 | 247 | 10.0 | 14.0 | 0.00 | 0.00 | 0.00 | 79 | 1016.2 |
| 20260507061845 | 75 | 262 | 5.0 | 15.0 | 0.00 | 0.00 | 0.00 | 76 | 1015.8 |
| 20260507061343 | 76 | 307 | 6.0 | 10.0 | 0.00 | 0.00 | 0.00 | 73 | 1016.2 |
| 20260507060841 | 76 | 260 | 6.0 | 11.0 | 0.00 | 0.00 | 0.00 | 71 | 1015.8 |
| 20260507060337 | 76 | 270 | 3.0 | 9.0 | 0.00 | 0.00 | 0.00 | 71 | 1015.4 |
| 20260507055834 | 76 | 240 | 2.0 | 6.0 | 0.00 | 0.00 | 0.00 | 71 | 1015.1 |
| 20260507055329 | 76 | 236 | 5.0 | 5.0 | 0.00 | 0.00 | 0.00 | 70 | 1015.1 |
| 20260507054826 | 76 | 233 | 0.0 | 5.0 | 0.00 | 0.00 | 0.00 | 70 | 1015.1 |
| 20260507054322 | 76 | 257 | 4.0 | 5.0 | 0.00 | 0.00 | 0.00 | 70 | 1014.9 |
| 20260507053820 | 77 | 253 | 6.0 | 10.0 | 0.00 | 0.00 | 0.00 | 70 | 1015.3 |
| 20260507053317 | 76 | 243 | 2.0 | 7.0 | 0.00 | 0.00 | 0.00 | 70 | 1015.5 |
| 20260507052816 | 74 | 229 | 6.0 | 6.0 | 0.00 | 0.00 | 0.00 | 74 | 1015.6 |
| 20260507052312 | 72 | 291 | 1.0 | 2.0 | 0.00 | 0.00 | 0.00 | 85 | 1015.9 |
| 20260507051810 | 72 | 90 | 1.0 | 2.0 | 0.00 | 0.00 | 0.00 | 85 | 1015.9 |
| 20260507051308 | 72 | 250 | 3.0 | 3.0 | 0.00 | 0.00 | 0.00 | 85 | 1015.9 |
| 20260507050804 | 72 | 82 | 0.0 | 2.0 | 0.00 | 0.00 | 0.00 | 85 | 1015.9 |
| 20260507050300 | 72 | 90 | 0.0 | 3.0 | 0.00 | 0.00 | 0.00 | 84 | 1016.2 |
| 20260507045757 | 73 | 90 | 0.0 | 1.0 | 0.00 | 0.00 | 0.00 | 84 | 1016.7 |
| 20260507045254 | 73 | 90 | 0.0 | 0.0 | 0.00 | 0.00 | 0.00 | 84 | 1016.9 |
| 20260507044751 | 73 | 81 | 0.0 | 0.0 | 0.00 | 0.00 | 0.00 | 83 | 1017.0 |
| 20260507044247 | 73 | 82 | 0.0 | 2.0 | 0.00 | 0.00 | 0.00 | 83 | 1016.9 |
| 20260507043743 | 73 | 74 | 1.0 | 3.0 | 0.00 | 0.00 | 0.00 | 83 | 1016.8 |
| 20260507043240 | 74 | 0 | 0.0 | 2.0 | 0.00 | 0.00 | 0.00 | 82 | 1017.0 |
| 20260507042736 | 74 | 81 | 0.0 | 1.0 | 0.00 | 0.00 | 0.00 | 81 | 1017.0 |
| 20260507042232 | 74 | 340 | 0.0 | 1.0 | 0.00 | 0.00 | 0.00 | 80 | 1017.0 |
| 20260507041730 | 74 | 254 | 0.0 | 1.0 | 0.00 | 0.00 | 0.00 | 80 | 1017.1 |
| 20260507041226 | 74 | 77 | 1.0 | 1.0 | 0.00 | 0.00 | 0.00 | 80 | 1016.7 |
| 20260507040723 | 74 | 75 | 0.0 | 2.0 | 0.00 | 0.00 | 0.00 | 79 | 1016.8 |
| 20260507040219 | 75 | 63 | 1.0 | 4.0 | 0.00 | 0.00 | 0.00 | 78 | 1016.8 |
| 20260507035715 | 75 | 261 | 2.0 | 3.0 | 0.00 | 0.00 | 0.00 | 76 | 1016.9 |
| 20260507035211 | 76 | 79 | 2.0 | 8.0 | 0.00 | 0.00 | 0.00 | 74 | 1017.0 |
| 20260507034708 | 78 | 99 | 0.0 | 0.0 | 0.00 | 0.00 | 0.00 | 61 | 1016.8 |
| 20260507034206 | 78 | 0 | 0.0 | 0.0 | 0.00 | 0.00 | 0.00 | 60 | 1016.8 |
| 20260507033704 | 79 | 350 | 2.0 | 2.0 | 0.00 | 0.00 | 0.00 | 60 | 1016.7 |
| 20260507033201 | 79 | 318 | 3.0 | 5.0 | 0.00 | 0.00 | 0.00 | 59 | 1017.0 |
| 20260507032658 | 79 | 251 | 5.0 | 5.0 | 0.00 | 0.00 | 0.00 | 59 | 1017.1 |
| 20260507032154 | 79 | 262 | 2.0 | 6.0 | 0.00 | 0.00 | 0.00 | 59 | 1017.0 |
| 20260507031651 | 79 | 252 | 4.0 | 5.0 | 0.00 | 0.00 | 0.00 | 59 | 1017.3 |
| 20260507031147 | 79 | 297 | 3.0 | 6.0 | 0.00 | 0.00 | 0.00 | 58 | 1017.2 |
| 20260507030644 | 80 | 254 | 5.0 | 6.0 | 0.00 | 0.00 | 0.00 | 58 | 1017.3 |
| 20260507030142 | 80 | 246 | 0.0 | 5.0 | 0.00 | 0.00 | 0.00 | 58 | 1017.1 |
| 20260507025639 | 80 | 258 | 2.0 | 7.0 | 0.00 | 0.00 | 0.00 | 58 | 1017.1 |
| 20260507025136 | 80 | 233 | 3.0 | 6.0 | 0.00 | 0.00 | 0.00 | 57 | 1016.8 |
| 20260507024634 | 80 | 234 | 3.0 | 6.0 | 0.00 | 0.00 | 0.00 | 58 | 1016.8 |
| 20260507024131 | 80 | 265 | 2.0 | 7.0 | 0.00 | 0.00 | 0.00 | 57 | 1016.7 |
| 20260507023626 | 80 | 231 | 3.0 | 9.0 | 0.00 | 0.00 | 0.00 | 57 | 1016.5 |
| 20260507023124 | 80 | 232 | 5.0 | 10.0 | 0.00 | 0.00 | 0.00 | 57 | 1016.3 |
| 20260507022621 | 80 | 234 | 4.0 | 8.0 | 0.00 | 0.00 | 0.00 | 57 | 1016.0 |
| 20260507022116 | 80 | 235 | 4.0 | 10.0 | 0.00 | 0.00 | 0.00 | 57 | 1016.0 |
| 20260507021613 | 80 | 195 | 7.0 | 9.0 | 0.00 | 0.00 | 0.00 | 57 | 1016.0 |
| 20260507021108 | 80 | 214 | 7.0 | 12.0 | 0.00 | 0.00 | 0.00 | 57 | 1015.9 |
| 20260507020607 | 80 | 241 | 6.0 | 11.0 | 0.00 | 0.00 | 0.00 | 56 | 1016.0 |
| 20260507015602 | 80 | 246 | 5.0 | 8.0 | 0.00 | 0.00 | 0.00 | 56 | 1015.7 |
| 20260507015058 | 80 | 189 | 2.0 | 10.0 | 0.00 | 0.00 | 0.00 | 56 | 1015.7 |
| 20260507014555 | 80 | 202 | 7.0 | 11.0 | 0.00 | 0.00 | 0.00 | 56 | 1015.8 |
| 20260507014051 | 80 | 263 | 4.0 | 9.0 | 0.00 | 0.00 | 0.00 | 56 | 1016.0 |
| 20260507013548 | 80 | 242 | 4.0 | 12.0 | 0.00 | 0.00 | 0.00 | 57 | 1016.1 |
| 20260507013045 | 80 | 225 | 5.0 | 9.0 | 0.00 | 0.00 | 0.00 | 58 | 1016.1 |
| 20260507012542 | 80 | 216 | 6.0 | 8.0 | 0.00 | 0.00 | 0.00 | 57 | 1016.0 |
| 20260507012038 | 80 | 249 | 4.0 | 6.0 | 0.00 | 0.00 | 0.00 | 57 | 1015.7 |
| 20260507011536 | 80 | 194 | 3.0 | 4.0 | 0.00 | 0.00 | 0.00 | 57 | 1015.6 |
| 20260507011032 | 81 | 221 | 4.0 | 7.0 | 0.00 | 0.00 | 0.00 | 56 | 1015.5 |
| 20260507010526 | 81 | 227 | 3.0 | 7.0 | 0.00 | 0.00 | 0.00 | 57 | 1015.4 |
| 20260507010023 | 81 | 196 | 4.0 | 7.0 | 0.00 | 0.00 | 0.00 | 57 | 1015.2 |
| 20260507005521 | 81 | 214 | 5.0 | 7.0 | 0.00 | 0.00 | 0.00 | 56 | 1015.3 |
| 20260507005017 | 81 | 246 | 3.0 | 5.0 | 0.00 | 0.00 | 0.00 | 56 | 1015.2 |
| 20260507004514 | 81 | 175 | 3.0 | 6.0 | 0.00 | 0.00 | 0.00 | 56 | 1015.3 |
| 20260507004011 | 81 | 223 | 5.0 | 5.0 | 0.00 | 0.00 | 0.00 | 56 | 1015.0 |
| 20260507003506 | 81 | 199 | 0.0 | 4.0 | 0.00 | 0.00 | 0.00 | 56 | 1015.1 |
| 20260507003001 | 81 | 173 | 0.0 | 4.0 | 0.00 | 0.00 | 0.00 | 55 | 1015.3 |
| 20260507002459 | 82 | 229 | 5.0 | 7.0 | 0.00 | 0.00 | 0.00 | 55 | 1015.6 |
| 20260507001955 | 82 | 252 | 5.0 | 6.0 | 0.00 | 0.00 | 0.00 | 53 | 1015.8 |
| 20260507001451 | 82 | 240 | 3.0 | 7.0 | 0.00 | 0.00 | 0.00 | 53 | 1015.8 |
| 20260507000949 | 82 | 234 | 1.0 | 5.0 | 0.00 | 0.00 | 0.00 | 52 | 1015.9 |
| 20260507000445 | 83 | 219 | 8.0 | 9.0 | 0.00 | 0.00 | 0.00 | 52 | 1015.9 |
| 20260506235940 | 83 | 259 | 8.0 | 11.0 | 0.00 | 0.00 | 0.00 | 51 | 1015.9 |
| 20260506235438 | 83 | 188 | 5.0 | 11.0 | 0.00 | 0.00 | 0.00 | 51 | 1015.9 |
| 20260506234933 | 84 | 241 | 5.0 | 10.0 | 0.00 | 0.00 | 0.00 | 51 | 1015.7 |
| 20260506234431 | 84 | 240 | 7.0 | 10.0 | 0.00 | 0.00 | 0.00 | 51 | 1015.7 |
| 20260506233929 | 84 | 328 | 0.0 | 9.0 | 0.00 | 0.00 | 0.00 | 51 | 1015.9 |
| 20260506233425 | 84 | 245 | 4.0 | 9.0 | 0.00 | 0.00 | 0.00 | 50 | 1016.0 |
| 20260506232921 | 84 | 207 | 4.0 | 9.0 | 0.00 | 0.00 | 0.00 | 51 | 1016.0 |
| 20260506232418 | 84 | 205 | 6.0 | 10.0 | 0.00 | 0.00 | 0.00 | 50 | 1015.9 |
| 20260506231914 | 84 | 235 | 3.0 | 7.0 | 0.00 | 0.00 | 0.00 | 50 | 1016.0 |
| 20260506231412 | 84 | 262 | 8.0 | 10.0 | 0.00 | 0.00 | 0.00 | 50 | 1015.8 |
| 20260506230909 | 85 | 209 | 6.0 | 9.0 | 0.00 | 0.00 | 0.00 | 49 | 1015.9 |
| 20260506230405 | 85 | 242 | 4.0 | 22.0 | 0.00 | 0.00 | 0.00 | 49 | 1016.1 |
| 20260506225901 | 86 | 179 | 7.0 | 8.0 | 0.00 | 0.00 | 0.00 | 48 | 1015.8 |
| 20260506225359 | 86 | 224 | 8.0 | 16.0 | 0.00 | 0.00 | 0.00 | 48 | 1015.7 |
| 20260506224856 | 86 | 191 | 7.0 | 10.0 | 0.00 | 0.00 | 0.00 | 49 | 1015.8 |
| 20260506224353 | 86 | 226 | 5.0 | 6.0 | 0.00 | 0.00 | 0.00 | 48 | 1015.7 |
| 20260506223849 | 86 | 206 | 10.0 | 11.0 | 0.00 | 0.00 | 0.00 | 48 | 1015.4 |
| 20260506223344 | 86 | 192 | 6.0 | 7.0 | 0.00 | 0.00 | 0.00 | 49 | 1015.5 |
| 20260506222842 | 86 | 237 | 7.0 | 10.0 | 0.00 | 0.00 | 0.00 | 49 | 1015.6 |
| 20260506222338 | 86 | 229 | 12.0 | 17.0 | 0.00 | 0.00 | 0.00 | 49 | 1015.5 |
| 20260506221836 | 87 | 209 | 3.0 | 5.0 | 0.00 | 0.00 | 0.00 | 49 | 1015.5 |
| 20260506221333 | 87 | 238 | 8.0 | 10.0 | 0.00 | 0.00 | 0.00 | 49 | 1015.7 |
| 20260506220831 | 87 | 227 | 6.0 | 9.0 | 0.00 | 0.00 | 0.00 | 48 | 1015.6 |
| 20260506220326 | 86 | 235 | 6.0 | 10.0 | 0.00 | 0.00 | 0.00 | 49 | 1015.9 |
| 20260506215823 | 87 | 240 | 4.0 | 12.0 | 0.00 | 0.00 | 0.00 | 48 | 1015.9 |
| 20260506215318 | 87 | 233 | 4.0 | 12.0 | 0.00 | 0.00 | 0.00 | 49 | 1015.9 |
| 20260506214814 | 86 | 251 | 5.0 | 17.0 | 0.00 | 0.00 | 0.00 | 48 | 1015.7 |
| 20260506214311 | 86 | 185 | 3.0 | 17.0 | 0.00 | 0.00 | 0.00 | 48 | 1016.0 |
| 20260506213810 | 87 | 270 | 4.0 | 11.0 | 0.00 | 0.00 | 0.00 | 48 | 1016.1 |
| 20260506213306 | 86 | 230 | 4.0 | 16.0 | 0.00 | 0.00 | 0.00 | 48 | 1015.9 |
| 20260506212804 | 87 | 232 | 7.0 | 11.0 | 0.00 | 0.00 | 0.00 | 47 | 1015.9 |
| 20260506212259 | 87 | 226 | 7.0 | 11.0 | 0.00 | 0.00 | 0.00 | 47 | 1016.0 |
| 20260506211754 | 88 | 157 | 4.0 | 15.0 | 0.00 | 0.00 | 0.00 | 46 | 1015.9 |
| 20260506211251 | 88 | 245 | 2.0 | 13.0 | 0.00 | 0.00 | 0.00 | 47 | 1015.9 |